Teruhou Maru No.22 — JD3202 — position and weather

sailwx.info

Track history (hours):
 
Tides and Currents Weather Stations Pressure Air Temp Water Temp Dewpoint Dewpoint Depression Visibility Wind Speed Wind Dir Waves Ship Positions

Teruhou Maru No.22

Last reported at 2014-Oct-24 10:32 UTC. Time now 2014-Oct-25 16:03 UTC.
Position N 34°05' E 135°01'.

Length 76 m; draft 4 m.

Type: Cargo ship. MMSI: 431002552.

Date/timePositionNaut miles runAvg speedWind from/ knotsBaromVisibWave heightAir tempDewpointWater temp
2014-Oct-24 10:32N 34°05' E 135°01'1411.2
2014-Oct-24 09:18N 34°19' E 134°58'911.2
2014-Oct-24 08:32N 34°27' E 135°01'10 9.7
2014-Oct-24 07:32N 34°37' E 135°00'3 0.3
2014-Oct-23 20:31N 34°37' E 134°57'9 9.3
2014-Oct-23 19:33N 34°31' E 135°04'  
2014-Oct-21 06:33N 34°05' E 135°01'2512.3
2014-Oct-21 04:34N 34°30' E 135°02'10 9.7
2014-Oct-21 03:30N 34°37' E 134°53'1 0.0
2014-Oct-20 09:33N 34°37' E 134°54'1414.4
2014-Oct-20 08:33N 34°35' E 135°11'13 1.8
2014-Oct-20 01:31N 34°33' E 135°26'3 2.9
2014-Oct-20 00:34N 34°34' E 135°23'0 0.0
2014-Oct-19 23:34N 34°34' E 135°23'0 0.0
2014-Oct-19 22:33N 34°34' E 135°23'0 0.0
2014-Oct-19 21:34N 34°34' E 135°23'0 0.0
2014-Oct-19 20:33N 34°34' E 135°23'0 0.0
2014-Oct-19 19:33N 34°34' E 135°23'0 0.0
2014-Oct-19 18:33N 34°34' E 135°23'0 0.0
2014-Oct-19 17:31N 34°34' E 135°23'0 0.0
2014-Oct-19 16:33N 34°34' E 135°23'1 1.4
2014-Oct-19 15:34N 34°34' E 135°21'1212.0
2014-Oct-19 14:34N 34°35' E 135°07'1613.1
2014-Oct-19 13:22N 34°40' E 134°49'5 0.4
2014-Oct-18 23:16N 34°37' E 134°54'912.4
2014-Oct-18 22:33N 34°35' E 135°05'  
Track history (hours):
 
Tides and Currents Weather Stations Pressure Air Temp Water Temp Dewpoint Dewpoint Depression Visibility Wind Speed Wind Dir Waves Ship Positions

Teruhou Maru No.22

Last reported at 2014-Oct-24 10:32 UTC. Time now 2014-Oct-25 16:03 UTC.
Position N 34°05' E 135°01'.

Length 76 m; draft 4 m.

Type: Cargo ship. MMSI: 431002552.

Date/timePositionNaut miles runAvg speedWind from/ knotsBaromVisibWave heightAir tempDewpointWater temp
2014-Oct-24 10:32N 34°05' E 135°01'1411.2
2014-Oct-24 09:18N 34°19' E 134°58'911.2
2014-Oct-24 08:32N 34°27' E 135°01'10 9.7
2014-Oct-24 07:32N 34°37' E 135°00'3 0.3
2014-Oct-23 20:31N 34°37' E 134°57'9 9.3
2014-Oct-23 19:33N 34°31' E 135°04'  
2014-Oct-21 06:33N 34°05' E 135°01'2512.3
2014-Oct-21 04:34N 34°30' E 135°02'10 9.7
2014-Oct-21 03:30N 34°37' E 134°53'1 0.0
2014-Oct-20 09:33N 34°37' E 134°54'1414.4
2014-Oct-20 08:33N 34°35' E 135°11'13 1.8
2014-Oct-20 01:31N 34°33' E 135°26'3 2.9
2014-Oct-20 00:34N 34°34' E 135°23'0 0.0
2014-Oct-19 23:34N 34°34' E 135°23'0 0.0
2014-Oct-19 22:33N 34°34' E 135°23'0 0.0
2014-Oct-19 21:34N 34°34' E 135°23'0 0.0
2014-Oct-19 20:33N 34°34' E 135°23'0 0.0
2014-Oct-19 19:33N 34°34' E 135°23'0 0.0
2014-Oct-19 18:33N 34°34' E 135°23'0 0.0
2014-Oct-19 17:31N 34°34' E 135°23'0 0.0
2014-Oct-19 16:33N 34°34' E 135°23'1 1.4
2014-Oct-19 15:34N 34°34' E 135°21'1212.0
2014-Oct-19 14:34N 34°35' E 135°07'1613.1
2014-Oct-19 13:22N 34°40' E 134°49'5 0.4
2014-Oct-18 23:16N 34°37' E 134°54'912.4
2014-Oct-18 22:33N 34°35' E 135°05'  

Dump ship's entire track history